sensor_id;sensor_type;location;lat;lon;timestamp;P1;durP1;ratioP1;P2;durP2;ratioP2
72125;SDS011;59999;51.676;22.650;2023-08-30T00:00:47;10.57;;;4.35;;
72125;SDS011;59999;51.676;22.650;2023-08-30T00:03:31;9.02;;;3.78;;
72125;SDS011;59999;51.676;22.650;2023-08-30T00:06:01;11.52;;;4.22;;
72125;SDS011;59999;51.676;22.650;2023-08-30T00:08:29;10.75;;;3.92;;
72125;SDS011;59999;51.676;22.650;2023-08-30T00:10:55;9.00;;;4.20;;
72125;SDS011;59999;51.676;22.650;2023-08-30T00:13:26;11.68;;;4.47;;
72125;SDS011;59999;51.676;22.650;2023-08-30T00:15:54;12.35;;;4.80;;
72125;SDS011;59999;51.676;22.650;2023-08-30T00:18:20;11.85;;;4.45;;
72125;SDS011;59999;51.676;22.650;2023-08-30T00:20:46;9.77;;;4.00;;
72125;SDS011;59999;51.676;22.650;2023-08-30T00:23:12;11.18;;;4.25;;
72125;SDS011;59999;51.676;22.650;2023-08-30T00:25:38;11.27;;;4.18;;
72125;SDS011;59999;51.676;22.650;2023-08-30T00:28:04;11.53;;;4.40;;
72125;SDS011;59999;51.676;22.650;2023-08-30T00:30:32;11.77;;;4.20;;
72125;SDS011;59999;51.676;22.650;2023-08-30T00:32:57;10.43;;;4.30;;
72125;SDS011;59999;51.676;22.650;2023-08-30T00:35:23;12.40;;;5.65;;
72125;SDS011;59999;51.676;22.650;2023-08-30T00:37:49;10.70;;;4.40;;
72125;SDS011;59999;51.676;22.650;2023-08-30T00:40:15;12.68;;;5.20;;
72125;SDS011;59999;51.676;22.650;2023-08-30T00:42:41;15.05;;;6.75;;
72125;SDS011;59999;51.676;22.650;2023-08-30T00:45:07;15.40;;;7.20;;
72125;SDS011;59999;51.676;22.650;2023-08-30T00:47:34;17.33;;;7.90;;
72125;SDS011;59999;51.676;22.650;2023-08-30T00:50:01;17.42;;;7.80;;
72125;SDS011;59999;51.676;22.650;2023-08-30T00:52:27;14.32;;;7.47;;
72125;SDS011;59999;51.676;22.650;2023-08-30T00:54:53;16.00;;;7.63;;
72125;SDS011;59999;51.676;22.650;2023-08-30T00:57:18;15.40;;;7.00;;
72125;SDS011;59999;51.676;22.650;2023-08-30T00:59:45;13.48;;;6.70;;
72125;SDS011;59999;51.676;22.650;2023-08-30T01:02:10;19.15;;;7.80;;
72125;SDS011;59999;51.676;22.650;2023-08-30T01:04:38;12.83;;;6.97;;
72125;SDS011;59999;51.676;22.650;2023-08-30T01:07:03;15.80;;;7.53;;
72125;SDS011;59999;51.676;22.650;2023-08-30T01:09:29;18.73;;;8.85;;
72125;SDS011;59999;51.676;22.650;2023-08-30T01:17:22;15.80;;;5.82;;
72125;SDS011;59999;51.676;22.650;2023-08-30T01:28:23;15.50;;;6.35;;
72125;SDS011;59999;51.676;22.650;2023-08-30T01:30:52;15.73;;;6.57;;
72125;SDS011;59999;51.676;22.650;2023-08-30T01:33:23;18.02;;;7.43;;
72125;SDS011;59999;51.676;22.650;2023-08-30T01:35:49;14.80;;;7.53;;
72125;SDS011;59999;51.676;22.650;2023-08-30T01:38:16;16.37;;;7.73;;
72125;SDS011;59999;51.676;22.650;2023-08-30T01:40:43;17.42;;;7.97;;
72125;SDS011;59999;51.676;22.650;2023-08-30T01:43:10;18.05;;;8.30;;
72125;SDS011;59999;51.676;22.650;2023-08-30T01:45:38;14.70;;;7.65;;
72125;SDS011;59999;51.676;22.650;2023-08-30T01:48:07;16.80;;;7.93;;
72125;SDS011;59999;51.676;22.650;2023-08-30T01:50:36;17.80;;;7.30;;
72125;SDS011;59999;51.676;22.650;2023-08-30T01:53:04;16.67;;;7.45;;
72125;SDS011;59999;51.676;22.650;2023-08-30T01:55:32;16.85;;;7.65;;
72125;SDS011;59999;51.676;22.650;2023-08-30T01:57:58;14.93;;;6.80;;
72125;SDS011;59999;51.676;22.650;2023-08-30T02:00:24;13.20;;;6.22;;
72125;SDS011;59999;51.676;22.650;2023-08-30T02:02:50;14.83;;;6.17;;
72125;SDS011;59999;51.676;22.650;2023-08-30T02:05:16;14.63;;;5.85;;
72125;SDS011;59999;51.676;22.650;2023-08-30T02:08:05;14.25;;;5.78;;
72125;SDS011;59999;51.676;22.650;2023-08-30T02:10:40;16.77;;;6.30;;
72125;SDS011;59999;51.676;22.650;2023-08-30T02:13:10;13.15;;;6.30;;
72125;SDS011;59999;51.676;22.650;2023-08-30T02:15:38;15.13;;;6.53;;
72125;SDS011;59999;51.676;22.650;2023-08-30T02:18:07;14.30;;;6.40;;
72125;SDS011;59999;51.676;22.650;2023-08-30T02:20:33;16.23;;;6.60;;
72125;SDS011;59999;51.676;22.650;2023-08-30T02:22:59;13.87;;;6.80;;
72125;SDS011;59999;51.676;22.650;2023-08-30T02:25:25;15.00;;;6.72;;
72125;SDS011;59999;51.676;22.650;2023-08-30T02:27:51;17.15;;;6.38;;
72125;SDS011;59999;51.676;22.650;2023-08-30T02:30:18;15.07;;;6.73;;
72125;SDS011;59999;51.676;22.650;2023-08-30T02:32:44;13.30;;;6.25;;
72125;SDS011;59999;51.676;22.650;2023-08-30T02:35:10;14.32;;;6.25;;
72125;SDS011;59999;51.676;22.650;2023-08-30T02:37:36;13.13;;;5.95;;
72125;SDS011;59999;51.676;22.650;2023-08-30T02:40:02;14.37;;;6.43;;
72125;SDS011;59999;51.676;22.650;2023-08-30T02:42:28;13.48;;;5.78;;
72125;SDS011;59999;51.676;22.650;2023-08-30T02:44:54;15.30;;;6.35;;
72125;SDS011;59999;51.676;22.650;2023-08-30T02:47:20;14.23;;;6.07;;
72125;SDS011;59999;51.676;22.650;2023-08-30T02:49:46;14.35;;;6.40;;
72125;SDS011;59999;51.676;22.650;2023-08-30T02:52:12;19.30;;;7.03;;
72125;SDS011;59999;51.676;22.650;2023-08-30T02:54:38;14.57;;;6.35;;
72125;SDS011;59999;51.676;22.650;2023-08-30T02:57:04;13.07;;;6.40;;
72125;SDS011;59999;51.676;22.650;2023-08-30T02:59:30;18.38;;;6.80;;
72125;SDS011;59999;51.676;22.650;2023-08-30T03:01:56;14.80;;;6.40;;
72125;SDS011;59999;51.676;22.650;2023-08-30T03:04:22;17.58;;;6.32;;
72125;SDS011;59999;51.676;22.650;2023-08-30T03:06:48;13.52;;;6.20;;
72125;SDS011;59999;51.676;22.650;2023-08-30T03:09:14;13.05;;;5.40;;
72125;SDS011;59999;51.676;22.650;2023-08-30T03:11:39;15.13;;;6.50;;
72125;SDS011;59999;51.676;22.650;2023-08-30T03:14:05;16.52;;;6.82;;
72125;SDS011;59999;51.676;22.650;2023-08-30T03:16:31;14.65;;;5.85;;
72125;SDS011;59999;51.676;22.650;2023-08-30T03:18:57;13.30;;;6.03;;
72125;SDS011;59999;51.676;22.650;2023-08-30T03:21:23;17.83;;;6.70;;
72125;SDS011;59999;51.676;22.650;2023-08-30T03:23:49;13.38;;;6.15;;
72125;SDS011;59999;51.676;22.650;2023-08-30T03:26:15;13.27;;;5.97;;
72125;SDS011;59999;51.676;22.650;2023-08-30T03:28:42;16.30;;;6.70;;
72125;SDS011;59999;51.676;22.650;2023-08-30T03:33:42;14.88;;;6.10;;
72125;SDS011;59999;51.676;22.650;2023-08-30T03:36:11;11.45;;;5.55;;
72125;SDS011;59999;51.676;22.650;2023-08-30T03:38:39;14.67;;;5.97;;
72125;SDS011;59999;51.676;22.650;2023-08-30T03:41:05;13.48;;;6.45;;
72125;SDS011;59999;51.676;22.650;2023-08-30T03:43:32;17.50;;;5.95;;
72125;SDS011;59999;51.676;22.650;2023-08-30T03:45:59;14.20;;;6.07;;
72125;SDS011;59999;51.676;22.650;2023-08-30T03:48:29;13.77;;;5.90;;
72125;SDS011;59999;51.676;22.650;2023-08-30T03:50:55;13.63;;;5.63;;
72125;SDS011;59999;51.676;22.650;2023-08-30T03:53:22;17.88;;;5.95;;
72125;SDS011;59999;51.676;22.650;2023-08-30T03:55:48;15.43;;;6.15;;
72125;SDS011;59999;51.676;22.650;2023-08-30T03:58:15;12.98;;;5.32;;
72125;SDS011;59999;51.676;22.650;2023-08-30T04:00:41;13.93;;;6.10;;
72125;SDS011;59999;51.676;22.650;2023-08-30T04:03:08;13.07;;;5.47;;
72125;SDS011;59999;51.676;22.650;2023-08-30T04:05:36;14.25;;;5.68;;
72125;SDS011;59999;51.676;22.650;2023-08-30T04:08:05;14.88;;;6.20;;
72125;SDS011;59999;51.676;22.650;2023-08-30T04:10:39;12.93;;;5.07;;
72125;SDS011;59999;51.676;22.650;2023-08-30T04:13:06;12.52;;;6.30;;
72125;SDS011;59999;51.676;22.650;2023-08-30T04:15:33;12.10;;;5.83;;
72125;SDS011;59999;51.676;22.650;2023-08-30T04:18:03;15.32;;;6.25;;
72125;SDS011;59999;51.676;22.650;2023-08-30T04:20:30;15.23;;;6.30;;
72125;SDS011;59999;51.676;22.650;2023-08-30T04:22:56;12.77;;;5.90;;
72125;SDS011;59999;51.676;22.650;2023-08-30T04:25:23;12.40;;;5.93;;
72125;SDS011;59999;51.676;22.650;2023-08-30T04:27:49;14.47;;;5.80;;
72125;SDS011;59999;51.676;22.650;2023-08-30T04:30:16;13.18;;;5.47;;
72125;SDS011;59999;51.676;22.650;2023-08-30T04:32:42;15.40;;;6.03;;
72125;SDS011;59999;51.676;22.650;2023-08-30T04:35:08;13.03;;;5.33;;
72125;SDS011;59999;51.676;22.650;2023-08-30T04:37:35;12.10;;;5.73;;
72125;SDS011;59999;51.676;22.650;2023-08-30T04:40:00;14.00;;;5.80;;
72125;SDS011;59999;51.676;22.650;2023-08-30T04:42:26;15.25;;;5.90;;
72125;SDS011;59999;51.676;22.650;2023-08-30T04:44:52;14.90;;;5.87;;
72125;SDS011;59999;51.676;22.650;2023-08-30T04:47:20;16.05;;;5.93;;
72125;SDS011;59999;51.676;22.650;2023-08-30T04:49:52;14.48;;;5.82;;
72125;SDS011;59999;51.676;22.650;2023-08-30T04:52:18;11.93;;;5.57;;
72125;SDS011;59999;51.676;22.650;2023-08-30T04:54:43;13.70;;;5.75;;
72125;SDS011;59999;51.676;22.650;2023-08-30T04:57:11;16.63;;;6.20;;
72125;SDS011;59999;51.676;22.650;2023-08-30T04:59:40;14.00;;;5.50;;
72125;SDS011;59999;51.676;22.650;2023-08-30T05:02:06;13.67;;;5.20;;
72125;SDS011;59999;51.676;22.650;2023-08-30T05:04:32;11.82;;;5.53;;
72125;SDS011;59999;51.676;22.650;2023-08-30T05:06:58;12.90;;;5.63;;
72125;SDS011;59999;51.676;22.650;2023-08-30T05:09:24;13.63;;;5.43;;
72125;SDS011;59999;51.676;22.650;2023-08-30T05:11:51;14.07;;;5.40;;
72125;SDS011;59999;51.676;22.650;2023-08-30T05:14:17;10.25;;;5.00;;
72125;SDS011;59999;51.676;22.650;2023-08-30T05:16:43;11.80;;;5.38;;
72125;SDS011;59999;51.676;22.650;2023-08-30T05:19:09;13.10;;;5.60;;
72125;SDS011;59999;51.676;22.650;2023-08-30T05:21:35;12.52;;;5.22;;
72125;SDS011;59999;51.676;22.650;2023-08-30T05:24:01;13.07;;;5.07;;
72125;SDS011;59999;51.676;22.650;2023-08-30T05:26:28;13.75;;;5.20;;
72125;SDS011;59999;51.676;22.650;2023-08-30T05:28:54;12.37;;;4.80;;
72125;SDS011;59999;51.676;22.650;2023-08-30T05:31:20;12.80;;;4.90;;
72125;SDS011;59999;51.676;22.650;2023-08-30T05:33:45;14.13;;;5.20;;
72125;SDS011;59999;51.676;22.650;2023-08-30T05:36:11;12.73;;;4.97;;
72125;SDS011;59999;51.676;22.650;2023-08-30T05:38:37;13.25;;;5.38;;
72125;SDS011;59999;51.676;22.650;2023-08-30T05:41:03;12.13;;;5.10;;
72125;SDS011;59999;51.676;22.650;2023-08-30T05:43:29;15.23;;;5.20;;
72125;SDS011;59999;51.676;22.650;2023-08-30T05:45:56;14.65;;;5.20;;
72125;SDS011;59999;51.676;22.650;2023-08-30T05:48:27;10.68;;;4.82;;
72125;SDS011;59999;51.676;22.650;2023-08-30T05:50:53;10.00;;;4.68;;
72125;SDS011;59999;51.676;22.650;2023-08-30T05:53:19;11.57;;;5.23;;
72125;SDS011;59999;51.676;22.650;2023-08-30T05:55:45;10.20;;;4.97;;
72125;SDS011;59999;51.676;22.650;2023-08-30T05:58:11;13.27;;;5.03;;
72125;SDS011;59999;51.676;22.650;2023-08-30T06:00:37;10.52;;;4.78;;
72125;SDS011;59999;51.676;22.650;2023-08-30T06:03:03;10.73;;;5.00;;
72125;SDS011;59999;51.676;22.650;2023-08-30T06:05:29;9.60;;;4.82;;
72125;SDS011;59999;51.676;22.650;2023-08-30T06:07:55;10.87;;;5.23;;
72125;SDS011;59999;51.676;22.650;2023-08-30T06:10:21;17.67;;;6.50;;
72125;SDS011;59999;51.676;22.650;2023-08-30T06:12:48;14.70;;;5.07;;
72125;SDS011;59999;51.676;22.650;2023-08-30T06:15:14;10.60;;;5.43;;
72125;SDS011;59999;51.676;22.650;2023-08-30T06:17:40;11.18;;;5.28;;
72125;SDS011;59999;51.676;22.650;2023-08-30T06:20:06;9.40;;;4.93;;
72125;SDS011;59999;51.676;22.650;2023-08-30T06:22:32;9.95;;;4.85;;
72125;SDS011;59999;51.676;22.650;2023-08-30T06:24:58;10.02;;;5.57;;
72125;SDS011;59999;51.676;22.650;2023-08-30T06:27:24;9.70;;;5.32;;
72125;SDS011;59999;51.676;22.650;2023-08-30T06:29:50;9.90;;;5.10;;
72125;SDS011;59999;51.676;22.650;2023-08-30T06:32:16;10.88;;;4.88;;
72125;SDS011;59999;51.676;22.650;2023-08-30T06:34:43;9.82;;;5.28;;
72125;SDS011;59999;51.676;22.650;2023-08-30T06:37:09;9.98;;;5.20;;
72125;SDS011;59999;51.676;22.650;2023-08-30T06:39:35;10.40;;;5.03;;
72125;SDS011;59999;51.676;22.650;2023-08-30T06:42:02;10.55;;;5.45;;
72125;SDS011;59999;51.676;22.650;2023-08-30T06:44:29;11.95;;;5.45;;
72125;SDS011;59999;51.676;22.650;2023-08-30T06:46:56;11.98;;;5.05;;
72125;SDS011;59999;51.676;22.650;2023-08-30T06:49:22;10.23;;;5.33;;
72125;SDS011;59999;51.676;22.650;2023-08-30T06:51:49;11.55;;;5.05;;
72125;SDS011;59999;51.676;22.650;2023-08-30T06:54:16;10.10;;;5.25;;
72125;SDS011;59999;51.676;22.650;2023-08-30T06:56:45;11.68;;;5.45;;
72125;SDS011;59999;51.676;22.650;2023-08-30T06:59:22;12.85;;;5.50;;
72125;SDS011;59999;51.676;22.650;2023-08-30T07:01:48;17.07;;;5.47;;
72125;SDS011;59999;51.676;22.650;2023-08-30T07:04:14;11.15;;;5.18;;
72125;SDS011;59999;51.676;22.650;2023-08-30T07:06:39;11.70;;;5.17;;
72125;SDS011;59999;51.676;22.650;2023-08-30T07:09:05;10.45;;;4.90;;
72125;SDS011;59999;51.676;22.650;2023-08-30T07:11:31;9.05;;;4.82;;
72125;SDS011;59999;51.676;22.650;2023-08-30T07:13:58;9.50;;;5.30;;
72125;SDS011;59999;51.676;22.650;2023-08-30T07:16:23;8.87;;;4.90;;
72125;SDS011;59999;51.676;22.650;2023-08-30T07:18:49;8.45;;;5.00;;
72125;SDS011;59999;51.676;22.650;2023-08-30T07:21:15;14.27;;;5.73;;
72125;SDS011;59999;51.676;22.650;2023-08-30T07:23:41;8.87;;;4.90;;
72125;SDS011;59999;51.676;22.650;2023-08-30T07:26:07;10.55;;;5.65;;
72125;SDS011;59999;51.676;22.650;2023-08-30T07:28:33;12.05;;;5.60;;
72125;SDS011;59999;51.676;22.650;2023-08-30T07:31:02;12.53;;;5.10;;
72125;SDS011;59999;51.676;22.650;2023-08-30T07:33:29;11.82;;;5.30;;
72125;SDS011;59999;51.676;22.650;2023-08-30T07:35:55;11.00;;;5.45;;
72125;SDS011;59999;51.676;22.650;2023-08-30T07:38:21;10.95;;;4.88;;
72125;SDS011;59999;51.676;22.650;2023-08-30T07:40:47;9.17;;;4.57;;
72125;SDS011;59999;51.676;22.650;2023-08-30T07:43:15;9.35;;;4.85;;
72125;SDS011;59999;51.676;22.650;2023-08-30T07:45:40;8.02;;;4.70;;
72125;SDS011;59999;51.676;22.650;2023-08-30T07:48:06;8.00;;;4.65;;
72125;SDS011;59999;51.676;22.650;2023-08-30T07:50:32;8.87;;;4.47;;
72125;SDS011;59999;51.676;22.650;2023-08-30T07:52:58;9.20;;;4.60;;
72125;SDS011;59999;51.676;22.650;2023-08-30T07:55:24;9.68;;;4.60;;
72125;SDS011;59999;51.676;22.650;2023-08-30T07:57:50;9.63;;;5.00;;
72125;SDS011;59999;51.676;22.650;2023-08-30T08:00:16;8.02;;;4.57;;
72125;SDS011;59999;51.676;22.650;2023-08-30T08:02:42;8.65;;;4.72;;
72125;SDS011;59999;51.676;22.650;2023-08-30T08:05:08;9.13;;;5.03;;
72125;SDS011;59999;51.676;22.650;2023-08-30T08:07:37;8.45;;;4.70;;
72125;SDS011;59999;51.676;22.650;2023-08-30T08:10:04;9.77;;;5.10;;
72125;SDS011;59999;51.676;22.650;2023-08-30T08:12:32;8.85;;;4.82;;
72125;SDS011;59999;51.676;22.650;2023-08-30T08:14:58;12.67;;;5.30;;
72125;SDS011;59999;51.676;22.650;2023-08-30T08:17:24;8.23;;;4.63;;
72125;SDS011;59999;51.676;22.650;2023-08-30T08:19:50;8.02;;;4.95;;
72125;SDS011;59999;51.676;22.650;2023-08-30T08:22:16;7.80;;;4.13;;
72125;SDS011;59999;51.676;22.650;2023-08-30T08:24:42;10.23;;;4.80;;
72125;SDS011;59999;51.676;22.650;2023-08-30T08:27:09;8.20;;;4.70;;
72125;SDS011;59999;51.676;22.650;2023-08-30T08:29:36;8.80;;;4.82;;
72125;SDS011;59999;51.676;22.650;2023-08-30T08:32:03;9.30;;;4.78;;
72125;SDS011;59999;51.676;22.650;2023-08-30T08:34:29;10.73;;;4.70;;
72125;SDS011;59999;51.676;22.650;2023-08-30T08:36:55;11.90;;;4.63;;
72125;SDS011;59999;51.676;22.650;2023-08-30T08:39:21;7.97;;;4.30;;
72125;SDS011;59999;51.676;22.650;2023-08-30T08:41:48;8.43;;;4.45;;
72125;SDS011;59999;51.676;22.650;2023-08-30T08:44:18;8.00;;;4.57;;
72125;SDS011;59999;51.676;22.650;2023-08-30T08:46:45;9.25;;;5.10;;
72125;SDS011;59999;51.676;22.650;2023-08-30T08:49:13;7.65;;;4.47;;
72125;SDS011;59999;51.676;22.650;2023-08-30T08:51:40;7.80;;;4.20;;
72125;SDS011;59999;51.676;22.650;2023-08-30T08:54:08;7.90;;;4.30;;
72125;SDS011;59999;51.676;22.650;2023-08-30T08:56:35;8.00;;;4.10;;
72125;SDS011;59999;51.676;22.650;2023-08-30T08:59:02;7.40;;;4.45;;
72125;SDS011;59999;51.676;22.650;2023-08-30T09:01:29;11.05;;;5.43;;
72125;SDS011;59999;51.676;22.650;2023-08-30T09:03:55;7.45;;;4.40;;
72125;SDS011;59999;51.676;22.650;2023-08-30T09:06:22;7.85;;;3.80;;
72125;SDS011;59999;51.676;22.650;2023-08-30T09:08:48;7.70;;;4.10;;
72125;SDS011;59999;51.676;22.650;2023-08-30T09:11:15;9.75;;;4.20;;
72125;SDS011;59999;51.676;22.650;2023-08-30T09:13:42;8.73;;;4.20;;
72125;SDS011;59999;51.676;22.650;2023-08-30T09:16:13;7.75;;;3.70;;
72125;SDS011;59999;51.676;22.650;2023-08-30T09:18:40;10.52;;;4.53;;
72125;SDS011;59999;51.676;22.650;2023-08-30T09:21:10;8.93;;;4.10;;
72125;SDS011;59999;51.676;22.650;2023-08-30T09:23:37;7.45;;;4.03;;
72125;SDS011;59999;51.676;22.650;2023-08-30T09:26:03;8.75;;;3.88;;
72125;SDS011;59999;51.676;22.650;2023-08-30T09:28:30;8.95;;;4.20;;
72125;SDS011;59999;51.676;22.650;2023-08-30T09:30:58;8.90;;;4.30;;
72125;SDS011;59999;51.676;22.650;2023-08-30T09:33:32;7.23;;;3.90;;
72125;SDS011;59999;51.676;22.650;2023-08-30T09:35:59;8.00;;;4.20;;
72125;SDS011;59999;51.676;22.650;2023-08-30T09:38:25;8.20;;;4.10;;
72125;SDS011;59999;51.676;22.650;2023-08-30T09:40:52;8.20;;;3.65;;
72125;SDS011;59999;51.676;22.650;2023-08-30T09:43:27;8.02;;;3.70;;
72125;SDS011;59999;51.676;22.650;2023-08-30T09:45:53;7.60;;;3.80;;
72125;SDS011;59999;51.676;22.650;2023-08-30T09:48:22;7.50;;;3.95;;
72125;SDS011;59999;51.676;22.650;2023-08-30T09:50:54;7.68;;;3.47;;
72125;SDS011;59999;51.676;22.650;2023-08-30T09:53:25;7.22;;;3.90;;
72125;SDS011;59999;51.676;22.650;2023-08-30T09:55:54;7.03;;;3.80;;
72125;SDS011;59999;51.676;22.650;2023-08-30T09:58:21;9.85;;;4.40;;
72125;SDS011;59999;51.676;22.650;2023-08-30T10:00:47;7.78;;;3.78;;
72125;SDS011;59999;51.676;22.650;2023-08-30T10:03:14;8.52;;;3.90;;
72125;SDS011;59999;51.676;22.650;2023-08-30T10:05:42;7.25;;;3.50;;
72125;SDS011;59999;51.676;22.650;2023-08-30T10:08:09;8.70;;;3.70;;
72125;SDS011;59999;51.676;22.650;2023-08-30T10:10:38;7.95;;;3.65;;
72125;SDS011;59999;51.676;22.650;2023-08-30T10:13:05;9.27;;;3.83;;
72125;SDS011;59999;51.676;22.650;2023-08-30T10:15:33;8.15;;;3.90;;
72125;SDS011;59999;51.676;22.650;2023-08-30T10:18:01;6.68;;;3.40;;
72125;SDS011;59999;51.676;22.650;2023-08-30T10:20:28;8.53;;;3.90;;
72125;SDS011;59999;51.676;22.650;2023-08-30T10:22:55;9.00;;;4.00;;
72125;SDS011;59999;51.676;22.650;2023-08-30T10:25:25;7.20;;;3.97;;
72125;SDS011;59999;51.676;22.650;2023-08-30T10:27:53;8.27;;;3.60;;
72125;SDS011;59999;51.676;22.650;2023-08-30T10:30:20;8.13;;;3.90;;
72125;SDS011;59999;51.676;22.650;2023-08-30T10:32:47;8.43;;;4.40;;
72125;SDS011;59999;51.676;22.650;2023-08-30T10:35:14;9.00;;;4.07;;
72125;SDS011;59999;51.676;22.650;2023-08-30T10:37:42;11.40;;;5.20;;
72125;SDS011;59999;51.676;22.650;2023-08-30T10:40:08;9.45;;;4.72;;
72125;SDS011;59999;51.676;22.650;2023-08-30T10:42:35;9.68;;;4.35;;
72125;SDS011;59999;51.676;22.650;2023-08-30T10:45:03;9.63;;;4.40;;
72125;SDS011;59999;51.676;22.650;2023-08-30T10:47:31;10.88;;;5.35;;
72125;SDS011;59999;51.676;22.650;2023-08-30T10:50:04;10.30;;;4.60;;
72125;SDS011;59999;51.676;22.650;2023-08-30T10:52:31;8.48;;;4.40;;
72125;SDS011;59999;51.676;22.650;2023-08-30T10:55:14;10.10;;;4.60;;
72125;SDS011;59999;51.676;22.650;2023-08-30T10:57:41;10.00;;;4.60;;
72125;SDS011;59999;51.676;22.650;2023-08-30T11:02:44;8.77;;;4.40;;
72125;SDS011;59999;51.676;22.650;2023-08-30T11:05:12;10.10;;;4.72;;
72125;SDS011;59999;51.676;22.650;2023-08-30T11:07:38;10.07;;;5.45;;
72125;SDS011;59999;51.676;22.650;2023-08-30T11:10:04;9.30;;;4.53;;
72125;SDS011;59999;51.676;22.650;2023-08-30T11:12:32;10.85;;;4.93;;
72125;SDS011;59999;51.676;22.650;2023-08-30T11:14:58;8.20;;;4.90;;
72125;SDS011;59999;51.676;22.650;2023-08-30T11:17:25;9.38;;;4.90;;
72125;SDS011;59999;51.676;22.650;2023-08-30T11:20:04;10.97;;;4.90;;
72125;SDS011;59999;51.676;22.650;2023-08-30T11:22:36;9.43;;;4.80;;
72125;SDS011;59999;51.676;22.650;2023-08-30T11:25:03;11.40;;;4.97;;
72125;SDS011;59999;51.676;22.650;2023-08-30T11:27:29;8.48;;;4.50;;
72125;SDS011;59999;51.676;22.650;2023-08-30T11:29:59;8.63;;;4.82;;
72125;SDS011;59999;51.676;22.650;2023-08-30T11:32:26;10.50;;;4.90;;
72125;SDS011;59999;51.676;22.650;2023-08-30T11:34:55;8.95;;;4.50;;
72125;SDS011;59999;51.676;22.650;2023-08-30T11:37:26;9.73;;;4.70;;
72125;SDS011;59999;51.676;22.650;2023-08-30T11:39:52;8.93;;;5.07;;
72125;SDS011;59999;51.676;22.650;2023-08-30T11:42:18;10.35;;;4.95;;
72125;SDS011;59999;51.676;22.650;2023-08-30T11:44:45;8.03;;;4.63;;
72125;SDS011;59999;51.676;22.650;2023-08-30T11:47:11;9.43;;;5.13;;
72125;SDS011;59999;51.676;22.650;2023-08-30T11:49:37;8.50;;;4.80;;
72125;SDS011;59999;51.676;22.650;2023-08-30T11:52:05;9.55;;;5.07;;
72125;SDS011;59999;51.676;22.650;2023-08-30T11:54:31;9.38;;;5.00;;
72125;SDS011;59999;51.676;22.650;2023-08-30T11:56:57;8.90;;;4.80;;
72125;SDS011;59999;51.676;22.650;2023-08-30T11:59:23;8.40;;;4.93;;
72125;SDS011;59999;51.676;22.650;2023-08-30T12:01:51;9.65;;;5.32;;
72125;SDS011;59999;51.676;22.650;2023-08-30T12:04:18;9.38;;;5.25;;
72125;SDS011;59999;51.676;22.650;2023-08-30T12:06:50;8.27;;;4.93;;
72125;SDS011;59999;51.676;22.650;2023-08-30T12:09:17;9.55;;;5.40;;
72125;SDS011;59999;51.676;22.650;2023-08-30T12:11:46;8.73;;;5.00;;
72125;SDS011;59999;51.676;22.650;2023-08-30T12:14:13;12.45;;;5.22;;
72125;SDS011;59999;51.676;22.650;2023-08-30T12:16:39;8.27;;;5.30;;
72125;SDS011;59999;51.676;22.650;2023-08-30T12:19:12;9.43;;;4.80;;
72125;SDS011;59999;51.676;22.650;2023-08-30T12:21:40;9.82;;;5.20;;
72125;SDS011;59999;51.676;22.650;2023-08-30T12:24:07;8.77;;;4.93;;
72125;SDS011;59999;51.676;22.650;2023-08-30T12:26:33;9.17;;;4.97;;
72125;SDS011;59999;51.676;22.650;2023-08-30T12:28:59;9.95;;;4.45;;
72125;SDS011;59999;51.676;22.650;2023-08-30T12:31:25;8.68;;;4.93;;
72125;SDS011;59999;51.676;22.650;2023-08-30T12:33:53;8.27;;;5.00;;
72125;SDS011;59999;51.676;22.650;2023-08-30T12:36:19;11.43;;;5.43;;
72125;SDS011;59999;51.676;22.650;2023-08-30T12:38:45;11.50;;;5.78;;
72125;SDS011;59999;51.676;22.650;2023-08-30T12:41:12;9.80;;;5.63;;
72125;SDS011;59999;51.676;22.650;2023-08-30T12:43:38;9.95;;;5.22;;
72125;SDS011;59999;51.676;22.650;2023-08-30T12:46:04;9.33;;;5.23;;
72125;SDS011;59999;51.676;22.650;2023-08-30T12:48:30;9.65;;;5.32;;
72125;SDS011;59999;51.676;22.650;2023-08-30T12:50:56;12.15;;;5.28;;
72125;SDS011;59999;51.676;22.650;2023-08-30T12:53:22;10.27;;;5.07;;
72125;SDS011;59999;51.676;22.650;2023-08-30T12:55:47;9.45;;;5.00;;
72125;SDS011;59999;51.676;22.650;2023-08-30T12:58:13;9.32;;;5.10;;
72125;SDS011;59999;51.676;22.650;2023-08-30T13:00:39;8.13;;;4.40;;
72125;SDS011;59999;51.676;22.650;2023-08-30T13:03:06;10.75;;;4.78;;
72125;SDS011;59999;51.676;22.650;2023-08-30T13:05:31;8.70;;;5.13;;
72125;SDS011;59999;51.676;22.650;2023-08-30T13:07:58;9.13;;;4.90;;
72125;SDS011;59999;51.676;22.650;2023-08-30T13:10:25;9.23;;;5.00;;
72125;SDS011;59999;51.676;22.650;2023-08-30T13:12:51;8.90;;;4.80;;
72125;SDS011;59999;51.676;22.650;2023-08-30T13:15:17;8.52;;;4.97;;
72125;SDS011;59999;51.676;22.650;2023-08-30T13:17:43;8.90;;;5.05;;
72125;SDS011;59999;51.676;22.650;2023-08-30T13:20:09;8.47;;;4.67;;
72125;SDS011;59999;51.676;22.650;2023-08-30T13:22:36;10.40;;;5.78;;
72125;SDS011;59999;51.676;22.650;2023-08-30T13:25:02;10.65;;;5.25;;
72125;SDS011;59999;51.676;22.650;2023-08-30T13:27:33;10.48;;;5.63;;
72125;SDS011;59999;51.676;22.650;2023-08-30T13:29:59;9.67;;;6.17;;
72125;SDS011;59999;51.676;22.650;2023-08-30T13:32:25;8.90;;;5.57;;
72125;SDS011;59999;51.676;22.650;2023-08-30T13:34:50;9.73;;;5.50;;
72125;SDS011;59999;51.676;22.650;2023-08-30T13:37:16;10.17;;;5.90;;
72125;SDS011;59999;51.676;22.650;2023-08-30T13:39:43;10.77;;;6.25;;
72125;SDS011;59999;51.676;22.650;2023-08-30T13:42:09;10.43;;;6.00;;
72125;SDS011;59999;51.676;22.650;2023-08-30T13:44:35;11.15;;;6.15;;
72125;SDS011;59999;51.676;22.650;2023-08-30T13:47:03;8.27;;;5.25;;
72125;SDS011;59999;51.676;22.650;2023-08-30T13:49:30;8.33;;;4.93;;
72125;SDS011;59999;51.676;22.650;2023-08-30T13:51:57;9.52;;;5.50;;
72125;SDS011;59999;51.676;22.650;2023-08-30T13:54:23;9.60;;;5.32;;
72125;SDS011;59999;51.676;22.650;2023-08-30T13:56:49;8.52;;;4.38;;
72125;SDS011;59999;51.676;22.650;2023-08-30T13:59:15;8.47;;;4.90;;
72125;SDS011;59999;51.676;22.650;2023-08-30T14:01:42;7.38;;;4.63;;
72125;SDS011;59999;51.676;22.650;2023-08-30T14:04:08;8.05;;;4.85;;
72125;SDS011;59999;51.676;22.650;2023-08-30T14:06:34;8.18;;;4.88;;
72125;SDS011;59999;51.676;22.650;2023-08-30T14:09:00;8.77;;;4.97;;
72125;SDS011;59999;51.676;22.650;2023-08-30T14:11:27;9.88;;;5.00;;
72125;SDS011;59999;51.676;22.650;2023-08-30T14:13:53;8.77;;;4.90;;
72125;SDS011;59999;51.676;22.650;2023-08-30T14:16:19;9.43;;;5.30;;
72125;SDS011;59999;51.676;22.650;2023-08-30T14:18:45;10.20;;;5.18;;
72125;SDS011;59999;51.676;22.650;2023-08-30T14:21:11;8.95;;;5.45;;
72125;SDS011;59999;51.676;22.650;2023-08-30T14:23:37;8.07;;;5.22;;
72125;SDS011;59999;51.676;22.650;2023-08-30T14:26:03;10.03;;;6.03;;
72125;SDS011;59999;51.676;22.650;2023-08-30T14:28:37;9.82;;;5.68;;
72125;SDS011;59999;51.676;22.650;2023-08-30T14:31:08;10.43;;;6.57;;
72125;SDS011;59999;51.676;22.650;2023-08-30T14:33:35;11.10;;;5.97;;
72125;SDS011;59999;51.676;22.650;2023-08-30T14:36:01;11.98;;;6.50;;
72125;SDS011;59999;51.676;22.650;2023-08-30T14:38:28;11.00;;;6.30;;
72125;SDS011;59999;51.676;22.650;2023-08-30T14:40:58;12.07;;;6.50;;
72125;SDS011;59999;51.676;22.650;2023-08-30T14:43:24;9.95;;;6.10;;